Latest Weather Observations for Moranbah Airport

IDQ60801

Issued at 11:02 pm EST Friday 27 February 2015 (issued every 30 minutes, with the page automatically refreshed every 10 minutes)

About weather observations | Map of weather stations | Latest weather observations for QLD | Other Formats
Station Details ID: 034035 Name: MORANBAH AIRPORT Lat: -22.06 Lon: 148.08 Height: 232.2 m
Data from the previous 72 hours. | See also: Recent months at Moranbah Airport
Date/Time
EST
Temp
°C
App
Temp
°C
Dew
Point
Rel
Hum
%
Delta-T
°C
Wind Press
QNH
hPa
Press
MSL
hPa
Rain
since 9 am
mm
Dir
 
Spd
km/h
Gust
km/h
Spd
kts
Gust
kts
27/11:00pm 24.8 27.4 20.5 77 2.8 ENE 7 9 4 5 1008.5 1006.9 0.0
27/10:30pm 25.4 26.9 20.6 75 3.2 NE 13 15 7 8 1008.4 1006.8 0.0
27/10:00pm 25.9 27.0 20.5 72 3.6 NE 15 20 8 11 1008.4 1006.8 0.0
27/09:30pm 26.5 27.4 20.8 71 3.8 N 17 24 9 13 1008.6 1007.0 0.0
27/09:00pm 27.0 27.5 20.8 69 4.1 NE 19 24 10 13 1008.1 1006.5 0.0
27/08:30pm 27.0 28.4 21.1 70 3.9 ENE 15 20 8 11 1007.5 1006.0 0.0
27/08:00pm 27.5 28.9 21.1 68 4.3 ENE 15 20 8 11 1006.7 1005.2 0.0
27/07:30pm 28.2 28.7 21.2 65 4.7 NE 20 26 11 14 1006.3 1004.7 0.0
27/07:00pm 29.1 29.4 20.3 59 5.9 E 19 24 10 13 1006.2 1004.6 0.0
27/06:30pm 29.7 31.0 19.4 54 6.8 E 11 15 6 8 1005.2 1003.6 0.0
27/06:00pm 30.0 30.8 19.1 52 7.2 NE 13 20 7 11 1004.8 1003.2 0.0
27/05:30pm 30.0 29.9 18.8 51 7.3 ENE 17 24 9 13 1004.6 1003.0 0.0
27/05:00pm 30.1 28.1 18.2 49 7.7 E 26 32 14 17 1004.3 1002.7 0.0
27/04:30pm 31.3 29.1 17.9 44 8.7 E 26 37 14 20 1003.7 1002.1 0.0
27/04:27pm 31.6 29.0 17.9 44 8.9 E 28 37 15 20 1003.8 1002.2 0.0
27/04:00pm 28.3 23.9 18.4 55 6.4 SE 39 56 21 30 1004.4 1002.8 0.0
27/03:37pm 30.7 29.2 16.7 43 8.9 E 20 54 11 29 1004.9 1003.3 0.0
27/03:36pm 31.4 30.2 16.2 40 9.6 NE 17 43 9 23 1004.8 1003.2 0.0
27/03:30pm 36.5 37.3 19.0 35 11.7 NNW 13 17 7 9 1004.1 1002.5 0.0
27/03:00pm 36.1 37.7 18.2 34 11.8 ESE 7 13 4 7 1004.4 1002.8 0.0
27/02:30pm 34.7 35.0 17.9 37 11.0 NNW 13 19 7 10 1004.9 1003.3 0.0
27/02:00pm 35.1 36.1 18.6 37 10.9 N 11 17 6 9 1005.6 1004.0 0.0
27/01:30pm 35.0 36.0 18.6 38 10.8 NW 11 17 6 9 1006.0 1004.4 0.0
27/01:00pm 34.8 35.5 18.8 39 10.6 NNW 13 26 7 14 1006.5 1004.9 0.0
27/12:30pm 33.4 33.9 18.3 40 9.9 N 13 17 7 9 1007.0 1005.5 0.0
27/12:00pm 32.6 33.3 18.0 41 9.5 N 11 19 6 10 1007.6 1006.1 0.0
27/11:30am 32.8 34.3 18.9 43 9.2 NNE 9 15 5 8 1008.2 1006.6 0.0
27/11:00am 32.4 36.0 21.3 52 7.6 NE 4 11 2 6 1008.7 1007.1 0.0
27/10:00am 30.3 32.7 20.8 56 6.4 NNW 9 17 5 9 1009.2 1007.6 0.0
27/09:30am 28.9 30.7 20.4 60 5.7 NNW 11 19 6 10 1009.5 1007.9 0.0
27/09:00am 28.3 30.5 20.3 62 5.3 N 9 19 5 10 1009.5 1007.9 0.0
27/08:30am 27.1 28.9 20.4 66 4.4 NNE 11 15 6 8 1009.4 1007.8 0.0
27/08:00am 26.1 27.9 20.4 71 3.8 N 11 15 6 8 1009.4 1007.8 0.0
27/07:30am 25.4 27.1 20.9 76 3.0 N 13 17 7 9 1009.1 1007.5 0.0
27/07:00am 24.6 27.4 21.5 83 2.1 N 9 13 5 7 1008.9 1007.3 0.0
27/06:30am 22.3 24.5 19.7 85 1.7 NE 7 7 4 4 1008.5 1006.9 0.0
27/06:00am 22.5 26.1 19.7 84 1.8 CALM 0 0 0 0 1008.5 1006.9 0.0
27/05:30am 23.2 25.8 20.0 82 2.1 NE 6 7 3 4 1008.0 1006.4 0.0
27/05:00am 23.1 25.2 20.1 83 2.0 ENE 9 9 5 5 1007.6 1006.1 0.0
27/04:30am 22.9 24.9 19.9 83 1.9 NE 9 11 5 6 1007.2 1005.7 0.0
27/04:00am 23.3 27.1 20.1 82 2.1 CALM 0 0 0 0 1007.1 1005.6 0.0
27/03:30am 23.4 27.0 19.8 80 2.3 CALM 0 0 0 0 1006.9 1005.4 0.0
27/03:00am 24.3 26.9 20.0 77 2.8 N 6 7 3 4 1006.8 1005.3 0.0
27/02:30am 24.6 26.8 20.3 77 2.8 ENE 9 11 5 6 1007.0 1005.5 0.0
27/02:00am 25.0 27.5 20.3 75 3.1 ENE 7 7 4 4 1007.4 1005.9 0.0
27/01:30am 25.1 28.6 20.4 75 3.1 NNE 2 9 1 5 1007.4 1005.9 0.0
27/01:00am 25.4 28.1 20.2 73 3.4 NNE 6 9 3 5 1007.2 1005.7 0.0
27/12:30am 25.6 27.1 20.6 74 3.3 NNE 13 20 7 11 1007.4 1005.9 0.0
27/12:00am 25.2 27.5 20.7 76 3.0 NE 9 11 5 6 1007.8 1006.2 0.0
 
Date/Time
EST
Temp
°C
App
Temp
°C
Dew
Point
Rel
Hum
%
Delta-T
°C
Wind Press
QNH
hPa
Press
MSL
hPa
Rain
since 9 am
mm
Dir
 
Spd
km/h
Gust
km/h
Spd
kts
Gust
kts
26/11:30pm 25.1 27.5 20.8 77 2.8 E 9 13 5 7 1008.1 1006.5 0.0
26/11:00pm 25.3 26.6 20.1 73 3.4 E 13 17 7 9 1008.3 1006.7 0.0
26/10:30pm 25.4 26.4 19.5 70 3.8 E 13 17 7 9 1008.1 1006.5 0.0
26/10:00pm 25.9 26.2 17.8 61 5.2 E 13 15 7 8 1008.0 1006.4 0.0
26/09:30pm 25.9 26.8 17.5 59 5.3 ENE 9 15 5 8 1007.8 1006.2 0.0
26/09:00pm 26.6 27.8 17.4 57 5.8 E 7 9 4 5 1007.4 1005.9 0.0
26/08:30pm 26.5 27.3 17.3 57 5.8 E 9 13 5 7 1006.9 1005.4 0.0
26/08:00pm 27.3 27.3 17.2 54 6.4 E 13 13 7 7 1006.6 1005.0 0.0
26/07:30pm 28.0 27.6 17.2 52 6.8 E 15 17 8 9 1006.4 1004.8 0.0
26/07:00pm 29.1 29.2 16.6 46 7.9 E 11 13 6 7 1006.1 1004.5 0.0
26/06:30pm 30.7 30.1 16.7 43 8.9 E 15 17 8 9 1005.6 1004.0 0.0
26/06:00pm 32.6 31.9 16.4 37 10.3 E 15 17 8 9 1005.4 1003.8 0.0
26/05:30pm 33.5 32.6 16.8 36 10.7 E 17 22 9 12 1005.1 1003.5 0.0
26/05:00pm 33.9 32.9 16.7 35 11.1 E 17 22 9 12 1004.8 1003.2 0.0
26/04:30pm 34.4 34.6 16.7 34 11.4 ENE 11 20 6 11 1004.7 1003.1 0.0
26/04:00pm 34.4 35.3 16.7 34 11.4 SE 7 13 4 7 1005.2 1003.6 0.0
26/03:30pm 34.2 33.4 16.1 34 11.5 E 15 20 8 11 1005.4 1003.8 0.0
26/03:00pm 33.8 33.6 15.7 33 11.5 ESE 11 17 6 9 1005.8 1004.2 0.0
26/02:30pm 33.9 33.5 16.3 35 11.2 SE 13 24 7 13 1006.2 1004.6 0.0
26/02:00pm 33.6 33.3 16.5 36 10.9 SSE 13 19 7 10 1006.7 1005.2 0.0
26/01:30pm 33.0 33.4 16.4 37 10.6 N 9 17 5 9 1007.3 1005.8 0.0
26/01:00pm 32.4 33.0 16.7 39 10.0 NE 9 15 5 8 1007.8 1006.2 0.0
26/12:30pm 31.8 32.1 18.0 43 9.0 ENE 13 20 7 11 1008.4 1006.8 0.0
26/12:00pm 31.2 32.5 17.5 44 8.8 E 7 17 4 9 1009.2 1007.6 0.0
26/11:30am 30.9 32.0 17.9 45 8.4 SE 9 19 5 10 1009.6 1008.0 0.0
26/11:00am 30.1 31.9 18.8 50 7.4 S 7 11 4 6 1010.0 1008.4 0.0
26/10:30am 28.8 29.9 18.0 52 6.9 SE 9 13 5 7 1010.5 1008.9 0.0
26/10:00am 29.9 32.4 20.2 56 6.5 SE 7 15 4 8 1010.9 1009.4 0.0
26/09:30am 28.4 30.0 19.1 57 6.1 NE 9 15 5 8 1011.1 1009.6 0.0
26/09:00am 27.3 29.1 19.6 62 5.0 NNE 9 15 5 8 1011.1 1009.6 0.0
26/08:30am 26.3 28.4 20.2 69 4.0 NNE 9 13 5 7 1011.1 1009.6 0.0
26/08:00am 25.2 27.6 20.0 73 3.4 NNW 7 13 4 7 1011.2 1009.7 0.0
26/07:30am 24.3 28.4 20.8 81 2.3 CALM 0 0 0 0 1010.9 1009.4 0.0
26/07:00am 22.7 25.9 20.6 88 1.4 WSW 4 7 2 4 1010.6 1009.1 0.0
26/06:30am 21.6 23.7 20.1 91 1.0 S 9 11 5 6 1010.5 1008.9 0.0
26/06:00am 20.5 22.3 18.8 90 1.1 S 7 9 4 5 1009.8 1008.2 0.0
26/05:30am 21.0 23.2 19.6 92 0.9 SSW 7 9 4 5 1009.6 1008.0 0.0
26/05:00am 20.9 22.7 19.6 92 0.8 SSW 9 11 5 6 1009.5 1007.9 0.0
26/04:30am 20.9 23.0 19.4 91 1.0 S 7 9 4 5 1009.1 1007.5 0.0
26/04:00am 20.8 22.4 19.1 90 1.1 SSE 9 11 5 6 1008.7 1007.1 0.0
26/03:30am 21.8 24.1 19.9 89 1.2 SE 7 7 4 4 1008.7 1007.1 0.0
26/03:00am 21.6 23.7 19.3 87 1.5 SE 7 7 4 4 1008.7 1007.1 0.0
26/02:30am 21.9 23.7 19.6 87 1.5 ESE 9 11 5 6 1008.9 1007.3 0.0
26/02:00am 22.5 24.5 19.9 85 1.7 E 9 11 5 6 1009.1 1007.5 0.0
26/01:30am 23.0 24.3 20.1 84 1.9 E 13 15 7 8 1009.3 1007.7 0.0
26/01:00am 23.0 25.0 20.0 83 2.0 ENE 9 11 5 6 1009.5 1007.9 0.0
26/12:30am 23.5 24.7 20.0 81 2.3 E 13 15 7 8 1009.5 1007.9 0.0
26/12:00am 24.1 25.0 20.0 78 2.7 E 15 19 8 10 1009.6 1008.0 0.0
 
Date/Time
EST
Temp
°C
App
Temp
°C
Dew
Point
Rel
Hum
%
Delta-T
°C
Wind Press
QNH
hPa
Press
MSL
hPa
Rain
since 9 am
mm
Dir
 
Spd
km/h
Gust
km/h
Spd
kts
Gust
kts
25/11:30pm 24.2 25.3 19.7 76 2.9 E 13 15 7 8 1009.5 1007.9 0.0
25/11:00pm 24.8 26.0 19.8 74 3.3 ESE 13 15 7 8 1009.6 1008.0 0.0
25/10:30pm 25.7 27.2 19.8 70 3.9 E 11 15 6 8 1009.7 1008.1 0.0
25/10:00pm 25.9 27.1 19.8 69 4.0 E 13 17 7 9 1009.2 1007.6 0.0
25/09:30pm 26.4 26.4 18.0 60 5.4 ESE 15 19 8 10 1009.0 1007.4 0.0
25/09:00pm 26.9 26.6 17.4 56 6.0 ESE 15 17 8 9 1008.9 1007.3 0.0
25/08:30pm 27.8 27.7 17.9 54 6.3 E 15 19 8 10 1008.6 1007.0 0.0
25/08:00pm 28.2 28.3 18.3 55 6.4 E 15 17 8 9 1008.2 1006.6 0.0
25/07:30pm 29.2 29.3 18.3 51 7.0 ESE 15 17 8 9 1007.8 1006.2 0.0
25/07:00pm 29.9 30.2 18.0 48 7.7 E 13 17 7 9 1007.3 1005.8 0.0
25/06:30pm 31.3 30.7 17.6 44 8.8 E 17 20 9 11 1007.0 1005.5 0.0
25/06:00pm 32.6 32.0 17.6 40 9.7 E 17 24 9 13 1006.6 1005.0 0.0
25/05:30pm 33.8 33.4 17.1 37 10.8 ESE 15 20 8 11 1006.6 1005.0 0.0
25/05:00pm 34.2 32.6 17.4 36 10.9 SE 22 32 12 17 1006.4 1004.8 0.0
25/04:30pm 34.5 33.2 17.3 36 11.1 ESE 20 30 11 16 1006.5 1004.9 0.0
25/04:00pm 34.4 31.6 16.3 34 11.6 SE 26 32 14 17 1006.8 1005.3 0.0
25/03:30pm 34.6 33.2 16.9 35 11.4 SE 20 30 11 16 1007.0 1005.5 0.0
25/03:00pm 34.6 33.7 18.2 37 10.8 SE 20 30 11 16 1007.0 1005.5 0.0
25/02:30pm 34.6 33.7 18.2 37 10.8 SE 20 35 11 19 1007.2 1005.7 0.0
25/02:00pm 34.6 33.7 18.2 37 10.8 ESE 20 28 11 15 1007.6 1006.1 0.0
25/01:30pm 34.0 34.0 18.9 41 10.0 ESE 17 32 9 17 1008.2 1006.6 0.0
25/01:00pm 33.5 32.3 18.4 40 9.9 ESE 22 32 12 17 1008.8 1007.2 0.0
25/12:30pm 32.2 32.3 19.1 45 8.6 SE 17 24 9 13 1009.4 1007.8 0.0
25/12:00pm 32.3 33.5 19.9 48 8.3 ESE 13 37 7 20 1009.9 1008.3 0.0
25/11:30am 32.2 33.8 20.8 51 7.7 ESE 13 20 7 11 1010.4 1008.8 0.0
25/11:00am 30.3 31.1 19.9 53 6.9 ESE 15 24 8 13 1010.8 1009.3 0.0
25/10:30am 30.8 32.7 19.8 52 7.3 SE 9 19 5 10 1011.1 1009.6 0.0
25/10:00am 30.0 31.5 20.5 56 6.3 SE 13 17 7 9 1011.3 1009.8 0.0
25/09:30am 30.0 32.9 21.7 61 5.6 ESE 9 15 5 8 1011.5 1010.0 0.0
25/09:00am 28.7 31.1 21.5 65 4.9 E 11 15 6 8 1011.6 1010.1 0.0
25/08:30am 27.7 29.8 22.4 73 3.6 ESE 15 17 8 9 1011.8 1010.3 0.0
25/08:00am 26.5 28.7 22.6 79 2.7 ESE 15 20 8 11 1011.8 1010.3 0.0
25/07:30am 25.1 27.6 23.2 89 1.3 SE 15 19 8 10 1011.5 1010.0 0.0
25/07:00am 23.9 26.4 22.5 92 0.9 SSE 13 17 7 9 1011.2 1009.7 0.0
25/06:30am 23.2 26.4 22.4 95 0.5 SSE 9 13 5 7 1010.8 1009.3 0.0
25/06:00am 22.7 25.6 21.7 94 0.7 SSE 9 11 5 6 1010.6 1009.1 0.0
25/05:30am 22.7 25.6 21.7 94 0.7 SSE 9 11 5 6 1010.4 1008.8 0.0
25/05:00am 22.7 25.2 21.7 94 0.7 SE 11 13 6 7 1010.0 1008.4 0.0
25/04:30am 22.5 25.2 21.3 93 0.8 SE 9 11 5 6 1009.6 1008.0 0.0
25/04:00am 22.8 25.6 21.6 93 0.8 SE 9 11 5 6 1009.4 1007.8 0.0
25/03:30am 22.7 24.8 21.0 90 1.1 SE 11 11 6 6 1009.2 1007.6 0.0
25/03:00am 23.4 26.5 21.1 87 1.5 SSE 6 6 3 3 1009.1 1007.5 0.0
25/02:30am 23.8 27.0 21.3 86 1.7 SE 6 7 3 4 1009.0 1007.4 0.0
25/02:00am 24.3 28.8 21.6 85 1.8 CALM 0 7 0 4 1009.3 1007.7 0.0
25/01:30am 24.2 27.5 21.9 87 1.5 E 7 11 4 6 1009.4 1007.8 0.0
25/01:00am 24.6 27.0 21.5 83 2.1 E 11 13 6 7 1009.5 1007.9 0.0
25/12:30am 25.1 28.5 21.6 81 2.3 NE 6 9 3 5 1009.7 1008.1 0.0
25/12:00am 25.3 28.6 21.4 79 2.6 NE 6 9 3 5 1009.9 1008.3 0.0
 
Date/Time
EST
Temp
°C
App
Temp
°C
Dew
Point
Rel
Hum
%
Delta-T
°C
Wind Press
QNH
hPa
Press
MSL
hPa
Rain
since 9 am
mm
Dir
 
Spd
km/h
Gust
km/h
Spd
kts
Gust
kts
24/11:30pm 26.0 29.2 21.7 77 2.9 ENE 7 9 4 5 1009.8 1008.2 0.0

Other Formats:

Comma delimited format used in spreadsheet applications
http://www.bom.gov.au/fwo/IDQ60801/IDQ60801.94397.axf

JavaScript Object Notation format (JSON) in row-major order
http://www.bom.gov.au/fwo/IDQ60801/IDQ60801.94397.json